sensor_id;sensor_type;location;lat;lon;timestamp;temperature;humidity
55091;DHT22;40985;53.180;5.800;2022-10-26T00:00:49;9.30;99.90
55091;DHT22;40985;53.180;5.800;2022-10-26T00:03:15;9.30;99.90
55091;DHT22;40985;53.180;5.800;2022-10-26T00:05:40;9.20;99.90
55091;DHT22;40985;53.180;5.800;2022-10-26T00:08:06;9.20;99.90
55091;DHT22;40985;53.180;5.800;2022-10-26T00:10:37;9.20;99.90
55091;DHT22;40985;53.180;5.800;2022-10-26T00:13:04;9.20;99.90
55091;DHT22;40985;53.180;5.800;2022-10-26T00:15:30;9.20;99.90
55091;DHT22;40985;53.180;5.800;2022-10-26T00:17:56;9.20;99.90
55091;DHT22;40985;53.180;5.800;2022-10-26T00:20:22;9.20;99.90
55091;DHT22;40985;53.180;5.800;2022-10-26T00:22:48;9.10;99.90
55091;DHT22;40985;53.180;5.800;2022-10-26T00:25:14;9.10;99.90
55091;DHT22;40985;53.180;5.800;2022-10-26T00:27:39;9.20;99.90
55091;DHT22;40985;53.180;5.800;2022-10-26T00:30:06;9.20;99.90
55091;DHT22;40985;53.180;5.800;2022-10-26T00:32:33;9.20;99.90
55091;DHT22;40985;53.180;5.800;2022-10-26T00:34:59;9.20;99.90
55091;DHT22;40985;53.180;5.800;2022-10-26T00:37:24;9.20;99.90
55091;DHT22;40985;53.180;5.800;2022-10-26T00:39:50;9.20;99.90
55091;DHT22;40985;53.180;5.800;2022-10-26T00:42:21;9.20;99.90
55091;DHT22;40985;53.180;5.800;2022-10-26T00:50:04;9.20;99.90
55091;DHT22;40985;53.180;5.800;2022-10-26T00:52:31;9.20;99.90
55091;DHT22;40985;53.180;5.800;2022-10-26T00:54:57;9.10;99.90
55091;DHT22;40985;53.180;5.800;2022-10-26T00:57:23;9.20;99.90
55091;DHT22;40985;53.180;5.800;2022-10-26T00:59:50;9.10;99.90
55091;DHT22;40985;53.180;5.800;2022-10-26T01:02:18;9.10;99.90
55091;DHT22;40985;53.180;5.800;2022-10-26T01:04:45;9.00;99.90
55091;DHT22;40985;53.180;5.800;2022-10-26T01:07:11;9.00;99.90
55091;DHT22;40985;53.180;5.800;2022-10-26T01:09:38;9.00;99.90
55091;DHT22;40985;53.180;5.800;2022-10-26T01:12:04;9.00;99.90
55091;DHT22;40985;53.180;5.800;2022-10-26T01:14:31;8.90;99.90
55091;DHT22;40985;53.180;5.800;2022-10-26T01:17:24;8.90;99.90
55091;DHT22;40985;53.180;5.800;2022-10-26T01:23:47;8.80;99.90
55091;DHT22;40985;53.180;5.800;2022-10-26T01:26:22;8.80;99.90
55091;DHT22;40985;53.180;5.800;2022-10-26T01:31:27;8.70;99.90
55091;DHT22;40985;53.180;5.800;2022-10-26T01:34:13;8.70;99.90
55091;DHT22;40985;53.180;5.800;2022-10-26T01:36:44;8.70;99.90
55091;DHT22;40985;53.180;5.800;2022-10-26T01:39:16;8.70;99.90
55091;DHT22;40985;53.180;5.800;2022-10-26T01:41:51;8.70;99.90
55091;DHT22;40985;53.180;5.800;2022-10-26T01:44:33;8.60;99.90
55091;DHT22;40985;53.180;5.800;2022-10-26T01:47:04;8.60;99.90
55091;DHT22;40985;53.180;5.800;2022-10-26T01:49:35;8.60;99.90
55091;DHT22;40985;53.180;5.800;2022-10-26T01:52:02;8.50;99.90
55091;DHT22;40985;53.180;5.800;2022-10-26T01:54:28;8.50;99.90
55091;DHT22;40985;53.180;5.800;2022-10-26T01:56:58;8.50;99.90
55091;DHT22;40985;53.180;5.800;2022-10-26T02:07:33;8.40;99.90
55091;DHT22;40985;53.180;5.800;2022-10-26T02:10:11;8.40;99.90
55091;DHT22;40985;53.180;5.800;2022-10-26T02:13:02;8.40;99.90
55091;DHT22;40985;53.180;5.800;2022-10-26T02:15:38;8.30;99.90
55091;DHT22;40985;53.180;5.800;2022-10-26T02:18:33;8.30;99.90
55091;DHT22;40985;53.180;5.800;2022-10-26T02:21:21;8.20;99.90
55091;DHT22;40985;53.180;5.800;2022-10-26T02:23:48;8.30;99.90
55091;DHT22;40985;53.180;5.800;2022-10-26T02:26:20;8.40;99.90
55091;DHT22;40985;53.180;5.800;2022-10-26T02:28:49;8.30;99.90
55091;DHT22;40985;53.180;5.800;2022-10-26T02:31:16;8.30;99.90
55091;DHT22;40985;53.180;5.800;2022-10-26T02:33:45;8.30;99.90
55091;DHT22;40985;53.180;5.800;2022-10-26T02:36:19;8.30;99.90
55091;DHT22;40985;53.180;5.800;2022-10-26T02:38:48;8.30;99.90
55091;DHT22;40985;53.180;5.800;2022-10-26T02:41:15;8.30;99.90
55091;DHT22;40985;53.180;5.800;2022-10-26T02:43:46;8.30;99.90
55091;DHT22;40985;53.180;5.800;2022-10-26T02:46:15;8.30;99.90
55091;DHT22;40985;53.180;5.800;2022-10-26T02:48:41;8.30;99.90
55091;DHT22;40985;53.180;5.800;2022-10-26T02:51:17;8.40;99.90
55091;DHT22;40985;53.180;5.800;2022-10-26T02:53:56;8.40;99.90
55091;DHT22;40985;53.180;5.800;2022-10-26T02:56:38;8.40;99.90
55091;DHT22;40985;53.180;5.800;2022-10-26T02:59:08;8.40;99.90
55091;DHT22;40985;53.180;5.800;2022-10-26T03:01:35;8.50;99.90
55091;DHT22;40985;53.180;5.800;2022-10-26T03:04:01;8.50;99.90
55091;DHT22;40985;53.180;5.800;2022-10-26T03:06:27;8.50;99.90
55091;DHT22;40985;53.180;5.800;2022-10-26T03:08:53;8.40;99.90
55091;DHT22;40985;53.180;5.800;2022-10-26T03:11:18;8.50;99.90
55091;DHT22;40985;53.180;5.800;2022-10-26T03:13:44;8.50;99.90
55091;DHT22;40985;53.180;5.800;2022-10-26T03:16:10;8.60;99.90
55091;DHT22;40985;53.180;5.800;2022-10-26T03:18:36;8.50;99.90
55091;DHT22;40985;53.180;5.800;2022-10-26T03:21:02;8.50;99.90
55091;DHT22;40985;53.180;5.800;2022-10-26T03:23:27;8.50;99.90
55091;DHT22;40985;53.180;5.800;2022-10-26T03:25:57;8.60;99.90
55091;DHT22;40985;53.180;5.800;2022-10-26T03:28:23;8.50;99.90
55091;DHT22;40985;53.180;5.800;2022-10-26T03:30:49;8.60;99.90
55091;DHT22;40985;53.180;5.800;2022-10-26T03:33:15;8.50;99.90
55091;DHT22;40985;53.180;5.800;2022-10-26T03:35:40;8.60;99.90
55091;DHT22;40985;53.180;5.800;2022-10-26T03:38:06;8.60;99.90
55091;DHT22;40985;53.180;5.800;2022-10-26T03:40:32;8.60;99.90
55091;DHT22;40985;53.180;5.800;2022-10-26T03:42:57;8.60;99.90
55091;DHT22;40985;53.180;5.800;2022-10-26T03:45:23;8.60;99.90
55091;DHT22;40985;53.180;5.800;2022-10-26T03:47:49;8.60;99.90
55091;DHT22;40985;53.180;5.800;2022-10-26T03:50:18;8.60;99.90
55091;DHT22;40985;53.180;5.800;2022-10-26T03:52:45;8.70;99.90
55091;DHT22;40985;53.180;5.800;2022-10-26T03:55:11;8.70;99.90
55091;DHT22;40985;53.180;5.800;2022-10-26T03:57:41;8.70;99.90
55091;DHT22;40985;53.180;5.800;2022-10-26T04:00:12;8.70;99.90
55091;DHT22;40985;53.180;5.800;2022-10-26T04:02:40;8.80;99.90
55091;DHT22;40985;53.180;5.800;2022-10-26T04:05:07;8.80;99.90
55091;DHT22;40985;53.180;5.800;2022-10-26T04:07:32;8.80;99.90
55091;DHT22;40985;53.180;5.800;2022-10-26T04:09:58;8.90;99.90
55091;DHT22;40985;53.180;5.800;2022-10-26T04:12:24;8.90;99.90
55091;DHT22;40985;53.180;5.800;2022-10-26T04:14:50;9.00;99.90
55091;DHT22;40985;53.180;5.800;2022-10-26T04:17:15;9.00;99.90
55091;DHT22;40985;53.180;5.800;2022-10-26T04:19:41;9.10;99.90
55091;DHT22;40985;53.180;5.800;2022-10-26T04:22:07;9.10;99.90
55091;DHT22;40985;53.180;5.800;2022-10-26T04:24:32;9.10;99.90
55091;DHT22;40985;53.180;5.800;2022-10-26T04:26:58;9.20;99.90
55091;DHT22;40985;53.180;5.800;2022-10-26T04:29:23;9.20;99.90
55091;DHT22;40985;53.180;5.800;2022-10-26T04:31:49;9.30;99.90
55091;DHT22;40985;53.180;5.800;2022-10-26T04:34:15;9.30;99.90
55091;DHT22;40985;53.180;5.800;2022-10-26T04:36:40;9.30;99.90
55091;DHT22;40985;53.180;5.800;2022-10-26T04:39:06;9.30;99.90
55091;DHT22;40985;53.180;5.800;2022-10-26T04:41:32;9.30;99.90
55091;DHT22;40985;53.180;5.800;2022-10-26T04:43:57;9.40;99.90
55091;DHT22;40985;53.180;5.800;2022-10-26T04:46:23;9.40;99.90
55091;DHT22;40985;53.180;5.800;2022-10-26T04:48:48;9.40;99.90
55091;DHT22;40985;53.180;5.800;2022-10-26T04:51:14;9.40;99.90
55091;DHT22;40985;53.180;5.800;2022-10-26T04:53:40;9.50;99.90
55091;DHT22;40985;53.180;5.800;2022-10-26T04:56:06;9.50;99.90
55091;DHT22;40985;53.180;5.800;2022-10-26T04:58:31;9.50;99.90
55091;DHT22;40985;53.180;5.800;2022-10-26T05:00:57;9.60;99.90
55091;DHT22;40985;53.180;5.800;2022-10-26T05:03:23;9.60;99.90
55091;DHT22;40985;53.180;5.800;2022-10-26T05:05:48;9.50;99.90
55091;DHT22;40985;53.180;5.800;2022-10-26T05:08:15;9.50;99.90
55091;DHT22;40985;53.180;5.800;2022-10-26T05:10:41;9.50;99.90
55091;DHT22;40985;53.180;5.800;2022-10-26T05:13:08;9.60;99.90
55091;DHT22;40985;53.180;5.800;2022-10-26T05:15:34;9.60;99.90
55091;DHT22;40985;53.180;5.800;2022-10-26T05:18:01;9.60;99.90
55091;DHT22;40985;53.180;5.800;2022-10-26T05:20:29;9.50;99.90
55091;DHT22;40985;53.180;5.800;2022-10-26T05:23:00;9.60;99.90
55091;DHT22;40985;53.180;5.800;2022-10-26T05:25:28;9.60;99.90
55091;DHT22;40985;53.180;5.800;2022-10-26T05:27:58;9.60;99.90
55091;DHT22;40985;53.180;5.800;2022-10-26T05:30:25;9.60;99.90
55091;DHT22;40985;53.180;5.800;2022-10-26T05:32:59;9.60;99.90
55091;DHT22;40985;53.180;5.800;2022-10-26T05:35:25;9.60;99.90
55091;DHT22;40985;53.180;5.800;2022-10-26T05:37:52;9.70;99.90
55091;DHT22;40985;53.180;5.800;2022-10-26T05:40:18;9.70;99.90
55091;DHT22;40985;53.180;5.800;2022-10-26T05:42:44;9.80;99.90
55091;DHT22;40985;53.180;5.800;2022-10-26T05:45:10;9.70;99.90
55091;DHT22;40985;53.180;5.800;2022-10-26T05:47:43;9.80;99.90
55091;DHT22;40985;53.180;5.800;2022-10-26T05:50:10;9.70;99.90
55091;DHT22;40985;53.180;5.800;2022-10-26T05:55:06;9.70;99.90
55091;DHT22;40985;53.180;5.800;2022-10-26T05:57:32;9.80;99.90
55091;DHT22;40985;53.180;5.800;2022-10-26T05:59:58;9.80;99.90
55091;DHT22;40985;53.180;5.800;2022-10-26T06:02:26;9.80;99.90
55091;DHT22;40985;53.180;5.800;2022-10-26T06:05:02;9.80;99.90
55091;DHT22;40985;53.180;5.800;2022-10-26T06:07:29;9.80;99.90
55091;DHT22;40985;53.180;5.800;2022-10-26T06:09:55;9.80;99.90
55091;DHT22;40985;53.180;5.800;2022-10-26T06:12:21;9.80;99.90
55091;DHT22;40985;53.180;5.800;2022-10-26T06:14:47;9.80;99.90
55091;DHT22;40985;53.180;5.800;2022-10-26T06:23:46;9.70;99.90
55091;DHT22;40985;53.180;5.800;2022-10-26T06:31:35;9.50;99.90
55091;DHT22;40985;53.180;5.800;2022-10-26T06:34:00;9.50;99.90
55091;DHT22;40985;53.180;5.800;2022-10-26T06:36:28;9.50;99.90
55091;DHT22;40985;53.180;5.800;2022-10-26T06:38:58;9.40;99.90
55091;DHT22;40985;53.180;5.800;2022-10-26T06:41:26;9.50;99.90
55091;DHT22;40985;53.180;5.800;2022-10-26T06:43:52;9.40;99.90
55091;DHT22;40985;53.180;5.800;2022-10-26T06:46:35;9.30;99.90
55091;DHT22;40985;53.180;5.800;2022-10-26T06:52:15;9.40;99.90
55091;DHT22;40985;53.180;5.800;2022-10-26T06:54:50;9.40;99.90
55091;DHT22;40985;53.180;5.800;2022-10-26T06:57:21;9.40;99.90
55091;DHT22;40985;53.180;5.800;2022-10-26T07:02:16;9.50;99.90
55091;DHT22;40985;53.180;5.800;2022-10-26T07:04:43;9.60;99.90
55091;DHT22;40985;53.180;5.800;2022-10-26T07:07:11;9.70;99.90
55091;DHT22;40985;53.180;5.800;2022-10-26T07:09:38;9.80;99.90
55091;DHT22;40985;53.180;5.800;2022-10-26T07:12:05;9.80;99.90
55091;DHT22;40985;53.180;5.800;2022-10-26T07:14:31;9.80;99.90
55091;DHT22;40985;53.180;5.800;2022-10-26T07:16:56;9.90;99.90
55091;DHT22;40985;53.180;5.800;2022-10-26T07:19:22;10.00;99.90
55091;DHT22;40985;53.180;5.800;2022-10-26T07:21:48;10.00;99.90
55091;DHT22;40985;53.180;5.800;2022-10-26T07:24:13;10.10;99.90
55091;DHT22;40985;53.180;5.800;2022-10-26T07:26:39;10.10;99.90
55091;DHT22;40985;53.180;5.800;2022-10-26T07:29:05;10.20;99.90
55091;DHT22;40985;53.180;5.800;2022-10-26T07:31:30;10.30;99.90
55091;DHT22;40985;53.180;5.800;2022-10-26T07:33:56;10.20;99.90
55091;DHT22;40985;53.180;5.800;2022-10-26T07:36:22;10.40;99.90
55091;DHT22;40985;53.180;5.800;2022-10-26T07:38:51;10.40;99.90
55091;DHT22;40985;53.180;5.800;2022-10-26T07:41:17;10.50;99.90
55091;DHT22;40985;53.180;5.800;2022-10-26T07:43:43;10.50;99.90
55091;DHT22;40985;53.180;5.800;2022-10-26T07:46:11;10.60;99.90
55091;DHT22;40985;53.180;5.800;2022-10-26T07:48:36;10.60;99.90
55091;DHT22;40985;53.180;5.800;2022-10-26T07:51:03;10.60;99.90
55091;DHT22;40985;53.180;5.800;2022-10-26T07:53:29;10.60;99.90
55091;DHT22;40985;53.180;5.800;2022-10-26T07:55:55;10.70;99.90
55091;DHT22;40985;53.180;5.800;2022-10-26T07:58:21;10.70;99.90
55091;DHT22;40985;53.180;5.800;2022-10-26T08:00:53;10.80;99.90
55091;DHT22;40985;53.180;5.800;2022-10-26T08:03:19;10.80;99.90
55091;DHT22;40985;53.180;5.800;2022-10-26T08:05:49;10.70;99.90
55091;DHT22;40985;53.180;5.800;2022-10-26T08:08:20;10.80;99.90
55091;DHT22;40985;53.180;5.800;2022-10-26T08:10:46;10.90;99.90
55091;DHT22;40985;53.180;5.800;2022-10-26T08:13:12;10.90;99.90
55091;DHT22;40985;53.180;5.800;2022-10-26T08:15:38;11.10;99.90
55091;DHT22;40985;53.180;5.800;2022-10-26T08:18:04;11.10;99.90
55091;DHT22;40985;53.180;5.800;2022-10-26T08:20:30;11.20;99.90
55091;DHT22;40985;53.180;5.800;2022-10-26T08:22:56;11.30;99.90
55091;DHT22;40985;53.180;5.800;2022-10-26T08:25:22;11.30;99.90
55091;DHT22;40985;53.180;5.800;2022-10-26T08:27:48;11.40;99.90
55091;DHT22;40985;53.180;5.800;2022-10-26T08:30:14;11.50;99.90
55091;DHT22;40985;53.180;5.800;2022-10-26T08:32:40;11.60;99.90
55091;DHT22;40985;53.180;5.800;2022-10-26T08:35:07;11.70;99.90
55091;DHT22;40985;53.180;5.800;2022-10-26T08:37:33;11.70;99.90
55091;DHT22;40985;53.180;5.800;2022-10-26T08:39:59;11.80;99.90
55091;DHT22;40985;53.180;5.800;2022-10-26T08:45:17;12.00;99.90
55091;DHT22;40985;53.180;5.800;2022-10-26T08:47:50;12.00;99.90
55091;DHT22;40985;53.180;5.800;2022-10-26T08:50:31;12.00;99.90
55091;DHT22;40985;53.180;5.800;2022-10-26T08:53:16;12.10;99.90
55091;DHT22;40985;53.180;5.800;2022-10-26T08:55:55;12.10;99.90
55091;DHT22;40985;53.180;5.800;2022-10-26T08:58:36;12.20;99.90
55091;DHT22;40985;53.180;5.800;2022-10-26T09:01:03;12.40;99.90
55091;DHT22;40985;53.180;5.800;2022-10-26T09:03:30;12.60;99.90
55091;DHT22;40985;53.180;5.800;2022-10-26T09:14:30;13.00;99.90
55091;DHT22;40985;53.180;5.800;2022-10-26T09:25:47;13.40;99.90
55091;DHT22;40985;53.180;5.800;2022-10-26T09:28:17;13.40;99.90
55091;DHT22;40985;53.180;5.800;2022-10-26T09:30:44;13.50;99.90
55091;DHT22;40985;53.180;5.800;2022-10-26T09:33:17;13.60;99.90
55091;DHT22;40985;53.180;5.800;2022-10-26T09:35:48;13.70;99.90
55091;DHT22;40985;53.180;5.800;2022-10-26T09:38:19;13.80;99.90
55091;DHT22;40985;53.180;5.800;2022-10-26T09:40:53;13.80;99.90
55091;DHT22;40985;53.180;5.800;2022-10-26T09:43:27;13.80;99.90
55091;DHT22;40985;53.180;5.800;2022-10-26T09:45:56;13.90;99.90
55091;DHT22;40985;53.180;5.800;2022-10-26T09:50:52;14.10;99.90
55091;DHT22;40985;53.180;5.800;2022-10-26T09:53:18;14.10;99.90
55091;DHT22;40985;53.180;5.800;2022-10-26T09:55:46;14.10;99.90
55091;DHT22;40985;53.180;5.800;2022-10-26T09:58:26;14.20;99.90
55091;DHT22;40985;53.180;5.800;2022-10-26T10:00:54;14.20;99.90
55091;DHT22;40985;53.180;5.800;2022-10-26T10:03:28;14.30;99.90
55091;DHT22;40985;53.180;5.800;2022-10-26T10:06:17;14.40;99.90
55091;DHT22;40985;53.180;5.800;2022-10-26T10:09:08;14.50;99.90
55091;DHT22;40985;53.180;5.800;2022-10-26T10:14:36;14.70;99.90
55091;DHT22;40985;53.180;5.800;2022-10-26T10:17:06;14.70;99.90
55091;DHT22;40985;53.180;5.800;2022-10-26T10:19:34;14.80;99.90
55091;DHT22;40985;53.180;5.800;2022-10-26T10:22:11;14.80;99.90
55091;DHT22;40985;53.180;5.800;2022-10-26T10:24:41;14.90;99.90
55091;DHT22;40985;53.180;5.800;2022-10-26T10:29:45;14.90;99.90
55091;DHT22;40985;53.180;5.800;2022-10-26T10:32:30;15.00;99.90
55091;DHT22;40985;53.180;5.800;2022-10-26T10:34:58;15.00;99.90
55091;DHT22;40985;53.180;5.800;2022-10-26T10:39:59;15.10;99.90
55091;DHT22;40985;53.180;5.800;2022-10-26T10:42:33;15.20;99.90
55091;DHT22;40985;53.180;5.800;2022-10-26T10:45:00;15.20;99.90
55091;DHT22;40985;53.180;5.800;2022-10-26T10:47:32;15.30;99.90
55091;DHT22;40985;53.180;5.800;2022-10-26T10:50:10;15.30;99.90
55091;DHT22;40985;53.180;5.800;2022-10-26T10:52:40;15.40;99.90
55091;DHT22;40985;53.180;5.800;2022-10-26T10:58:14;15.40;99.90
55091;DHT22;40985;53.180;5.800;2022-10-26T11:00:47;15.50;99.90
55091;DHT22;40985;53.180;5.800;2022-10-26T11:03:46;15.50;99.90
55091;DHT22;40985;53.180;5.800;2022-10-26T11:06:18;15.60;99.90
55091;DHT22;40985;53.180;5.800;2022-10-26T11:09:01;15.60;99.90
55091;DHT22;40985;53.180;5.800;2022-10-26T11:16:49;15.90;99.90
55091;DHT22;40985;53.180;5.800;2022-10-26T11:19:29;15.90;99.90
55091;DHT22;40985;53.180;5.800;2022-10-26T11:21:58;16.00;99.90
55091;DHT22;40985;53.180;5.800;2022-10-26T11:24:30;16.00;99.90
55091;DHT22;40985;53.180;5.800;2022-10-26T11:27:03;16.10;99.90
55091;DHT22;40985;53.180;5.800;2022-10-26T11:37:40;16.30;99.90
55091;DHT22;40985;53.180;5.800;2022-10-26T11:40:34;16.30;99.90
55091;DHT22;40985;53.180;5.800;2022-10-26T11:43:10;16.30;99.90
55091;DHT22;40985;53.180;5.800;2022-10-26T11:45:41;16.30;99.90
55091;DHT22;40985;53.180;5.800;2022-10-26T11:50:46;16.40;99.90
55091;DHT22;40985;53.180;5.800;2022-10-26T11:53:16;16.40;99.90
55091;DHT22;40985;53.180;5.800;2022-10-26T11:55:50;16.40;99.90
55091;DHT22;40985;53.180;5.800;2022-10-26T11:58:16;16.40;99.90
55091;DHT22;40985;53.180;5.800;2022-10-26T12:00:48;16.40;99.90
55091;DHT22;40985;53.180;5.800;2022-10-26T12:03:17;16.40;99.90
55091;DHT22;40985;53.180;5.800;2022-10-26T12:05:50;16.50;99.90
55091;DHT22;40985;53.180;5.800;2022-10-26T12:08:28;16.50;99.90
55091;DHT22;40985;53.180;5.800;2022-10-26T12:18:53;16.70;99.90
55091;DHT22;40985;53.180;5.800;2022-10-26T12:21:26;16.70;99.90
55091;DHT22;40985;53.180;5.800;2022-10-26T12:24:30;16.80;99.90
55091;DHT22;40985;53.180;5.800;2022-10-26T12:27:04;16.80;99.90
55091;DHT22;40985;53.180;5.800;2022-10-26T12:29:39;16.90;99.90
55091;DHT22;40985;53.180;5.800;2022-10-26T12:37:36;17.00;99.90
55091;DHT22;40985;53.180;5.800;2022-10-26T12:43:37;17.10;99.90
55091;DHT22;40985;53.180;5.800;2022-10-26T13:02:49;17.40;99.90
55091;DHT22;40985;53.180;5.800;2022-10-26T13:07:50;17.20;99.90
55091;DHT22;40985;53.180;5.800;2022-10-26T13:10:21;17.20;99.90
55091;DHT22;40985;53.180;5.800;2022-10-26T13:12:51;17.00;99.90
55091;DHT22;40985;53.180;5.800;2022-10-26T13:20:33;16.90;99.90
55091;DHT22;40985;53.180;5.800;2022-10-26T13:23:01;17.00;99.90
55091;DHT22;40985;53.180;5.800;2022-10-26T13:25:29;16.90;99.90
55091;DHT22;40985;53.180;5.800;2022-10-26T13:28:03;16.90;99.90
55091;DHT22;40985;53.180;5.800;2022-10-26T13:32:59;16.90;99.90
55091;DHT22;40985;53.180;5.800;2022-10-26T13:35:26;17.00;99.90
55091;DHT22;40985;53.180;5.800;2022-10-26T13:37:54;17.00;99.90
55091;DHT22;40985;53.180;5.800;2022-10-26T13:40:24;17.10;99.90
55091;DHT22;40985;53.180;5.800;2022-10-26T13:42:57;17.10;99.90
55091;DHT22;40985;53.180;5.800;2022-10-26T13:45:33;17.10;99.90
55091;DHT22;40985;53.180;5.800;2022-10-26T13:48:21;17.10;99.90
55091;DHT22;40985;53.180;5.800;2022-10-26T13:50:56;17.10;99.90
55091;DHT22;40985;53.180;5.800;2022-10-26T13:53:33;17.10;99.90
55091;DHT22;40985;53.180;5.800;2022-10-26T13:59:11;17.00;99.90
55091;DHT22;40985;53.180;5.800;2022-10-26T14:01:36;16.90;99.90
55091;DHT22;40985;53.180;5.800;2022-10-26T14:04:24;16.90;99.90
55091;DHT22;40985;53.180;5.800;2022-10-26T14:06:51;16.80;99.90
55091;DHT22;40985;53.180;5.800;2022-10-26T14:09:19;17.00;99.90
55091;DHT22;40985;53.180;5.800;2022-10-26T14:11:51;17.00;99.90
55091;DHT22;40985;53.180;5.800;2022-10-26T14:14:22;17.00;99.90
55091;DHT22;40985;53.180;5.800;2022-10-26T14:16:50;17.00;99.90
55091;DHT22;40985;53.180;5.800;2022-10-26T14:19:28;16.90;99.90
55091;DHT22;40985;53.180;5.800;2022-10-26T14:21:54;16.80;99.90
55091;DHT22;40985;53.180;5.800;2022-10-26T14:24:49;16.90;99.90
55091;DHT22;40985;53.180;5.800;2022-10-26T14:27:18;17.00;99.90
55091;DHT22;40985;53.180;5.800;2022-10-26T14:29:44;17.00;99.90
55091;DHT22;40985;53.180;5.800;2022-10-26T14:32:37;17.00;99.90
55091;DHT22;40985;53.180;5.800;2022-10-26T14:35:03;16.90;99.90
55091;DHT22;40985;53.180;5.800;2022-10-26T14:37:36;16.90;99.90
55091;DHT22;40985;53.180;5.800;2022-10-26T14:40:04;16.70;99.90
55091;DHT22;40985;53.180;5.800;2022-10-26T14:42:37;16.60;99.90
55091;DHT22;40985;53.180;5.800;2022-10-26T14:45:04;16.60;99.90
55091;DHT22;40985;53.180;5.800;2022-10-26T14:47:34;16.50;99.90
55091;DHT22;40985;53.180;5.800;2022-10-26T14:50:01;16.40;99.90
55091;DHT22;40985;53.180;5.800;2022-10-26T14:52:34;16.30;99.90
55091;DHT22;40985;53.180;5.800;2022-10-26T14:55:02;16.30;99.90
55091;DHT22;40985;53.180;5.800;2022-10-26T14:57:37;16.30;99.90
55091;DHT22;40985;53.180;5.800;2022-10-26T15:02:47;16.20;99.90
55091;DHT22;40985;53.180;5.800;2022-10-26T15:05:27;16.10;99.90
55091;DHT22;40985;53.180;5.800;2022-10-26T15:07:54;16.10;99.90
55091;DHT22;40985;53.180;5.800;2022-10-26T15:15:43;15.90;99.90
55091;DHT22;40985;53.180;5.800;2022-10-26T15:18:26;15.90;99.90
55091;DHT22;40985;53.180;5.800;2022-10-26T15:20:53;15.90;99.90
55091;DHT22;40985;53.180;5.800;2022-10-26T15:23:24;15.90;99.90
55091;DHT22;40985;53.180;5.800;2022-10-26T15:25:55;15.80;99.90
55091;DHT22;40985;53.180;5.800;2022-10-26T15:33:37;15.70;99.90
55091;DHT22;40985;53.180;5.800;2022-10-26T15:38:40;15.60;99.90
55091;DHT22;40985;53.180;5.800;2022-10-26T15:43:57;15.60;99.90
55091;DHT22;40985;53.180;5.800;2022-10-26T15:46:24;15.50;99.90
55091;DHT22;40985;53.180;5.800;2022-10-26T15:48:55;15.50;99.90
55091;DHT22;40985;53.180;5.800;2022-10-26T15:51:22;15.50;99.90
55091;DHT22;40985;53.180;5.800;2022-10-26T15:53:47;15.40;99.90
55091;DHT22;40985;53.180;5.800;2022-10-26T15:56:21;15.40;99.90
55091;DHT22;40985;53.180;5.800;2022-10-26T15:58:48;15.40;99.90
55091;DHT22;40985;53.180;5.800;2022-10-26T16:01:21;15.50;99.90
55091;DHT22;40985;53.180;5.800;2022-10-26T16:03:48;15.40;99.90
55091;DHT22;40985;53.180;5.800;2022-10-26T16:06:30;15.50;99.90
55091;DHT22;40985;53.180;5.800;2022-10-26T16:08:59;15.50;99.90
55091;DHT22;40985;53.180;5.800;2022-10-26T16:11:26;15.50;99.90
55091;DHT22;40985;53.180;5.800;2022-10-26T16:13:52;15.50;99.90
55091;DHT22;40985;53.180;5.800;2022-10-26T16:16:18;15.40;99.90
55091;DHT22;40985;53.180;5.800;2022-10-26T16:18:45;15.40;99.90
55091;DHT22;40985;53.180;5.800;2022-10-26T16:21:15;15.30;99.90
55091;DHT22;40985;53.180;5.800;2022-10-26T16:23:41;15.30;99.90
55091;DHT22;40985;53.180;5.800;2022-10-26T16:26:09;15.30;99.90
55091;DHT22;40985;53.180;5.800;2022-10-26T16:28:36;15.20;99.90
55091;DHT22;40985;53.180;5.800;2022-10-26T16:31:04;15.20;99.90
55091;DHT22;40985;53.180;5.800;2022-10-26T16:33:30;15.10;99.90
55091;DHT22;40985;53.180;5.800;2022-10-26T16:35:59;15.00;99.90
55091;DHT22;40985;53.180;5.800;2022-10-26T16:38:26;15.00;99.90
55091;DHT22;40985;53.180;5.800;2022-10-26T16:41:09;15.00;99.90
55091;DHT22;40985;53.180;5.800;2022-10-26T16:43:38;15.00;99.90
55091;DHT22;40985;53.180;5.800;2022-10-26T16:46:09;15.10;99.90
55091;DHT22;40985;53.180;5.800;2022-10-26T16:48:36;15.10;99.90
55091;DHT22;40985;53.180;5.800;2022-10-26T16:51:07;15.10;99.90
55091;DHT22;40985;53.180;5.800;2022-10-26T16:53:33;15.10;99.90
55091;DHT22;40985;53.180;5.800;2022-10-26T16:56:08;15.10;99.90
55091;DHT22;40985;53.180;5.800;2022-10-26T16:58:34;15.10;99.90
55091;DHT22;40985;53.180;5.800;2022-10-26T17:01:00;15.10;99.90
55091;DHT22;40985;53.180;5.800;2022-10-26T17:03:25;15.20;99.90
55091;DHT22;40985;53.180;5.800;2022-10-26T17:06:02;15.10;99.90
55091;DHT22;40985;53.180;5.800;2022-10-26T17:08:29;15.10;99.90
55091;DHT22;40985;53.180;5.800;2022-10-26T17:11:05;15.00;99.90
55091;DHT22;40985;53.180;5.800;2022-10-26T17:13:31;15.00;99.90
55091;DHT22;40985;53.180;5.800;2022-10-26T17:16:02;15.10;99.90
55091;DHT22;40985;53.180;5.800;2022-10-26T17:18:28;15.00;99.90
55091;DHT22;40985;53.180;5.800;2022-10-26T17:20:54;15.00;99.90
55091;DHT22;40985;53.180;5.800;2022-10-26T17:23:20;15.00;99.90
55091;DHT22;40985;53.180;5.800;2022-10-26T17:25:45;14.90;99.90
55091;DHT22;40985;53.180;5.800;2022-10-26T17:28:12;14.80;99.90
55091;DHT22;40985;53.180;5.800;2022-10-26T17:30:38;14.80;99.90
55091;DHT22;40985;53.180;5.800;2022-10-26T17:33:04;14.80;99.90
55091;DHT22;40985;53.180;5.800;2022-10-26T17:35:31;14.70;99.90
55091;DHT22;40985;53.180;5.800;2022-10-26T17:37:58;14.70;99.90
55091;DHT22;40985;53.180;5.800;2022-10-26T17:40:23;14.70;99.90
55091;DHT22;40985;53.180;5.800;2022-10-26T17:42:49;14.60;99.90
55091;DHT22;40985;53.180;5.800;2022-10-26T17:45:15;14.60;99.90
55091;DHT22;40985;53.180;5.800;2022-10-26T17:47:41;14.60;99.90
55091;DHT22;40985;53.180;5.800;2022-10-26T17:50:07;14.50;99.90
55091;DHT22;40985;53.180;5.800;2022-10-26T17:52:33;14.50;99.90
55091;DHT22;40985;53.180;5.800;2022-10-26T17:54:59;14.50;99.90
55091;DHT22;40985;53.180;5.800;2022-10-26T17:57:25;14.50;99.90
55091;DHT22;40985;53.180;5.800;2022-10-26T17:59:50;14.50;99.90
55091;DHT22;40985;53.180;5.800;2022-10-26T18:02:16;14.50;99.90
55091;DHT22;40985;53.180;5.800;2022-10-26T18:04:41;14.40;99.90
55091;DHT22;40985;53.180;5.800;2022-10-26T18:07:07;14.40;99.90
55091;DHT22;40985;53.180;5.800;2022-10-26T18:09:33;14.40;99.90
55091;DHT22;40985;53.180;5.800;2022-10-26T18:11:58;14.30;99.90
55091;DHT22;40985;53.180;5.800;2022-10-26T18:14:24;14.30;99.90
55091;DHT22;40985;53.180;5.800;2022-10-26T18:16:49;14.30;99.90
55091;DHT22;40985;53.180;5.800;2022-10-26T18:19:15;14.30;99.90
55091;DHT22;40985;53.180;5.800;2022-10-26T18:21:41;14.30;99.90
55091;DHT22;40985;53.180;5.800;2022-10-26T18:24:07;14.30;99.90
55091;DHT22;40985;53.180;5.800;2022-10-26T18:26:33;14.20;99.90